createdAt,value
2023-03-16T00:00:37.254Z,5.03
2023-03-16T00:03:24.600Z,7.60
2023-03-16T00:06:12.588Z,7.27
2023-03-16T00:08:59.906Z,7.53
2023-03-16T00:11:47.753Z,6.77
2023-03-16T00:14:35.682Z,5.73
2023-03-16T00:17:23.071Z,6.50
2023-03-16T00:20:11.047Z,5.67
2023-03-16T00:22:58.832Z,6.20
2023-03-16T00:25:46.210Z,7.83
2023-03-16T00:28:35.698Z,4.60
2023-03-16T00:31:24.976Z,9.00
2023-03-16T00:34:13.131Z,5.67
2023-03-16T00:37:01.599Z,7.77
2023-03-16T00:39:49.392Z,5.90
2023-03-16T00:42:36.679Z,4.77
2023-03-16T00:45:24.527Z,6.10
2023-03-16T00:48:12.012Z,9.80
2023-03-16T00:50:59.469Z,6.10
2023-03-16T00:53:47.102Z,6.83
2023-03-16T00:56:34.882Z,5.43
2023-03-16T00:59:22.274Z,6.77
2023-03-16T01:02:10.658Z,5.83
2023-03-16T01:04:58.820Z,6.87
2023-03-16T01:07:46.167Z,5.07
2023-03-16T01:10:34.979Z,5.43
2023-03-16T01:13:22.742Z,10.27
2023-03-16T01:16:10.872Z,5.47
2023-03-16T01:18:58.708Z,7.93
2023-03-16T01:21:46.045Z,6.47
2023-03-16T01:24:35.224Z,4.63
2023-03-16T01:27:23.216Z,11.30
2023-03-16T01:30:12.424Z,10.30
2023-03-16T01:33:00.329Z,6.17
2023-03-16T01:35:58.627Z,7.23
2023-03-16T01:38:46.686Z,5.53
2023-03-16T01:41:34.481Z,6.40
2023-03-16T01:44:24.359Z,8.27
2023-03-16T01:47:15.094Z,9.33
2023-03-16T01:50:03.126Z,5.90
2023-03-16T01:52:51.028Z,7.00
2023-03-16T01:55:39.046Z,5.93
2023-03-16T01:58:26.585Z,6.63
2023-03-16T02:01:14.420Z,8.50
2023-03-16T02:04:23.487Z,9.40
2023-03-16T02:07:11.041Z,8.00
2023-03-16T02:10:02.900Z,8.93
2023-03-16T02:12:50.706Z,7.97
2023-03-16T02:15:39.030Z,9.10
2023-03-16T02:18:27.080Z,7.03
2023-03-16T02:21:16.728Z,5.00
2023-03-16T02:24:04.542Z,5.90
2023-03-16T02:26:54.687Z,9.27
2023-03-16T02:29:47.955Z,7.73
2023-03-16T02:32:36.530Z,6.23
2023-03-16T02:35:24.181Z,5.20
2023-03-16T02:38:12.149Z,6.90
2023-03-16T02:41:10.209Z,7.10
2023-03-16T02:44:30.498Z,8.97
2023-03-16T02:47:23.768Z,6.03
2023-03-16T02:50:13.500Z,5.97
2023-03-16T02:53:00.933Z,8.40
2023-03-16T02:55:48.427Z,7.93
2023-03-16T02:58:35.840Z,9.70
2023-03-16T03:01:23.591Z,8.27
2023-03-16T03:04:11.012Z,8.00
2023-03-16T03:07:04.451Z,6.80
2023-03-16T03:09:53.648Z,6.77
2023-03-16T03:12:41.564Z,7.03
2023-03-16T03:15:28.804Z,10.00
2023-03-16T03:18:16.743Z,8.23
2023-03-16T03:21:04.144Z,8.87
2023-03-16T03:23:52.137Z,8.47
2023-03-16T03:26:39.414Z,6.77
2023-03-16T03:29:34.361Z,8.93
2023-03-16T03:32:22.388Z,9.43
2023-03-16T03:35:12.301Z,7.80
2023-03-16T03:38:00.237Z,10.00
2023-03-16T03:40:49.413Z,8.93
2023-03-16T03:43:36.916Z,8.27
2023-03-16T03:46:24.918Z,5.87
2023-03-16T03:49:12.416Z,8.13
2023-03-16T03:52:02.527Z,7.47
2023-03-16T03:54:49.803Z,6.93
2023-03-16T03:57:38.129Z,7.00
2023-03-16T04:00:25.725Z,7.33
2023-03-16T04:03:13.896Z,6.60
2023-03-16T04:06:01.824Z,8.03
2023-03-16T04:08:49.854Z,10.30
2023-03-16T04:11:37.622Z,8.57
2023-03-16T04:14:24.944Z,13.67
2023-03-16T04:17:12.904Z,9.53
2023-03-16T04:20:02.526Z,10.30
2023-03-16T04:22:49.893Z,11.60
2023-03-16T04:25:39.040Z,10.33
2023-03-16T04:28:26.484Z,12.30
2023-03-16T04:31:14.357Z,13.93
2023-03-16T04:34:02.390Z,11.70
2023-03-16T04:36:50.178Z,12.60
2023-03-16T04:39:38.318Z,16.47
2023-03-16T04:42:26.064Z,12.40
2023-03-16T04:45:14.158Z,15.60
2023-03-16T04:48:02.027Z,12.97
2023-03-16T04:50:50.403Z,14.00
2023-03-16T04:53:37.720Z,13.87
2023-03-16T04:56:24.985Z,16.97
2023-03-16T04:59:12.297Z,15.03
2023-03-16T05:01:59.584Z,16.97
2023-03-16T05:04:47.048Z,15.30
2023-03-16T05:07:34.573Z,17.47
2023-03-16T05:10:22.483Z,16.67
2023-03-16T05:13:09.771Z,16.97
2023-03-16T05:15:57.624Z,15.30
2023-03-16T05:18:45.046Z,19.40
2023-03-16T05:21:34.336Z,18.83
2023-03-16T05:24:21.669Z,16.87
2023-03-16T05:27:09.500Z,16.87
2023-03-16T05:29:56.782Z,18.90
2023-03-16T05:32:44.721Z,18.63
2023-03-16T05:35:32.437Z,16.40
2023-03-16T05:38:20.330Z,16.93
2023-03-16T05:41:07.737Z,14.53
2023-03-16T05:43:55.757Z,15.30
2023-03-16T05:46:46.265Z,13.20
2023-03-16T05:49:34.242Z,14.33
2023-03-16T05:52:21.578Z,15.67
2023-03-16T05:55:10.226Z,17.97
2023-03-16T05:57:58.136Z,17.40
2023-03-16T06:00:45.434Z,13.90
2023-03-16T06:03:33.340Z,16.77
2023-03-16T06:06:22.532Z,16.33
2023-03-16T06:09:10.822Z,15.30
2023-03-16T06:11:58.146Z,12.97
2023-03-16T06:14:45.883Z,14.87
2023-03-16T06:17:33.229Z,13.70
2023-03-16T06:20:21.139Z,14.43
2023-03-16T06:23:09.136Z,16.97
2023-03-16T06:25:56.892Z,13.30
2023-03-16T06:28:44.305Z,15.50
2023-03-16T06:31:32.053Z,13.67
2023-03-16T06:34:20.063Z,17.60
2023-03-16T06:37:07.967Z,12.43
2023-03-16T06:39:55.663Z,12.20
2023-03-16T06:42:46.268Z,12.80
2023-03-16T06:45:34.536Z,14.17
2023-03-16T06:48:22.274Z,13.67
2023-03-16T06:51:09.716Z,15.10
2023-03-16T06:53:57.587Z,16.47
2023-03-16T06:56:46.477Z,13.43
2023-03-16T06:59:34.928Z,14.57
2023-03-16T07:02:24.075Z,13.03
2023-03-16T07:05:14.823Z,13.97
2023-03-16T07:08:02.744Z,11.73
2023-03-16T07:10:52.084Z,14.03
2023-03-16T07:13:39.423Z,14.47
2023-03-16T07:16:27.474Z,10.20
2023-03-16T07:19:14.868Z,16.63
2023-03-16T07:22:02.883Z,14.93
2023-03-16T07:24:57.053Z,14.13
2023-03-16T07:27:46.563Z,19.10
2023-03-16T07:30:34.397Z,15.73
2023-03-16T07:33:22.400Z,13.60
2023-03-16T07:36:10.693Z,17.20
2023-03-16T07:38:58.922Z,18.47
2023-03-16T07:41:46.124Z,20.93
2023-03-16T07:44:33.387Z,18.67
2023-03-16T07:47:22.760Z,14.03
2023-03-16T07:50:11.934Z,17.87
2023-03-16T07:52:59.447Z,18.57
2023-03-16T07:55:47.269Z,13.57
2023-03-16T07:58:35.015Z,13.33
2023-03-16T08:01:22.481Z,16.63
2023-03-16T08:04:12.904Z,14.73
2023-03-16T08:07:01.014Z,18.50
2023-03-16T08:09:48.747Z,14.33
2023-03-16T08:12:35.983Z,10.30
2023-03-16T08:15:23.765Z,10.30
2023-03-16T08:18:11.428Z,13.40
2023-03-16T08:20:59.173Z,13.47
2023-03-16T08:23:50.314Z,14.10
2023-03-16T08:26:39.552Z,10.70
2023-03-16T08:29:27.457Z,10.67
2023-03-16T08:32:15.158Z,12.97
2023-03-16T08:35:02.591Z,13.00
2023-03-16T08:37:50.239Z,11.63
2023-03-16T08:40:37.436Z,12.87
2023-03-16T08:43:26.025Z,13.13
2023-03-16T08:46:13.469Z,12.83
2023-03-16T08:49:01.624Z,10.93
2023-03-16T08:51:48.999Z,12.50
2023-03-16T08:54:36.513Z,10.03
2023-03-16T08:57:24.298Z,13.23
2023-03-16T09:00:15.948Z,10.43
2023-03-16T09:03:03.676Z,14.27
2023-03-16T09:05:51.218Z,11.40
2023-03-16T09:08:41.963Z,12.37
2023-03-16T09:11:30.633Z,9.27
2023-03-16T09:14:18.867Z,9.37
2023-03-16T09:17:07.795Z,7.73
2023-03-16T09:20:03.287Z,9.00
2023-03-16T09:22:59.072Z,7.87
2023-03-16T09:25:46.497Z,8.27
2023-03-16T09:28:35.364Z,9.23
2023-03-16T09:31:22.785Z,6.47
2023-03-16T09:34:10.486Z,8.03
2023-03-16T09:36:57.669Z,13.87
2023-03-16T09:39:45.712Z,8.60
2023-03-16T09:42:36.689Z,7.77
2023-03-16T09:45:28.163Z,11.27
2023-03-16T09:48:17.032Z,10.17
2023-03-16T09:51:06.356Z,8.80
2023-03-16T09:53:56.633Z,11.57
2023-03-16T09:56:45.364Z,11.67
2023-03-16T09:59:32.730Z,7.80
2023-03-16T10:02:38.030Z,9.20
2023-03-16T10:05:27.326Z,7.30
2023-03-16T10:08:17.405Z,8.37
2023-03-16T10:11:10.836Z,7.83
2023-03-16T10:14:01.784Z,7.73
2023-03-16T10:16:59.411Z,8.13
2023-03-16T10:20:08.950Z,6.37
2023-03-16T10:22:59.313Z,6.97
2023-03-16T10:25:54.404Z,7.73
2023-03-16T10:28:43.783Z,6.90
2023-03-16T10:31:31.260Z,5.70
2023-03-16T10:34:19.455Z,6.83
2023-03-16T10:37:09.090Z,6.47
2023-03-16T10:39:57.706Z,7.70
2023-03-16T10:42:46.699Z,6.13
2023-03-16T10:45:35.872Z,7.63
2023-03-16T10:48:25.301Z,7.40
2023-03-16T10:51:15.236Z,6.73
2023-03-16T10:54:07.437Z,6.30
2023-03-16T10:56:55.821Z,8.33
2023-03-16T10:59:48.768Z,7.33
2023-03-16T11:02:36.723Z,5.13
2023-03-16T11:05:23.873Z,7.13
2023-03-16T11:08:16.974Z,9.20
2023-03-16T11:11:39.899Z,6.97
2023-03-16T11:14:28.793Z,8.40
2023-03-16T11:17:19.142Z,5.80
2023-03-16T11:20:14.840Z,5.03
2023-03-16T11:23:02.685Z,6.30
2023-03-16T11:25:51.766Z,6.97
2023-03-16T11:28:40.476Z,8.40
2023-03-16T11:31:50.593Z,7.00
2023-03-16T11:34:38.258Z,7.77
2023-03-16T11:37:40.064Z,7.27
2023-03-16T11:40:34.038Z,5.57
2023-03-16T11:43:41.080Z,7.63
2023-03-16T11:46:34.592Z,5.40
2023-03-16T11:49:48.849Z,6.87
2023-03-16T11:52:54.974Z,5.90
2023-03-16T11:55:42.612Z,7.57
2023-03-16T11:58:48.681Z,6.07
2023-03-16T12:02:00.517Z,7.63
2023-03-16T12:04:59.740Z,7.67
2023-03-16T12:07:47.764Z,6.70
2023-03-16T12:10:52.438Z,14.27
2023-03-16T12:13:39.984Z,8.37
2023-03-16T12:16:39.088Z,4.70
2023-03-16T12:19:47.104Z,5.67
2023-03-16T12:22:39.275Z,7.07
2023-03-16T12:25:29.772Z,7.33
2023-03-16T12:28:21.844Z,4.93
2023-03-16T12:31:15.408Z,5.57
2023-03-16T12:34:09.353Z,7.27
2023-03-16T12:37:11.143Z,4.20
2023-03-16T12:40:10.589Z,6.97
2023-03-16T12:43:06.695Z,3.40
2023-03-16T12:45:56.995Z,4.73
2023-03-16T12:48:48.708Z,5.23
2023-03-16T12:51:37.330Z,3.43
2023-03-16T12:54:25.770Z,8.97
2023-03-16T12:57:17.019Z,5.53
2023-03-16T13:00:08.963Z,4.70
2023-03-16T13:02:57.739Z,5.65
2023-03-16T13:05:46.550Z,5.97
2023-03-16T13:08:44.392Z,3.63
2023-03-16T13:11:50.507Z,3.78
2023-03-16T13:14:42.641Z,7.25
2023-03-16T13:17:31.789Z,6.80
2023-03-16T13:20:31.942Z,11.75
2023-03-16T13:23:21.008Z,4.35
2023-03-16T13:26:16.645Z,3.17
2023-03-16T13:29:08.733Z,3.25
2023-03-16T13:31:58.722Z,4.25
2023-03-16T13:34:54.154Z,3.50
2023-03-16T13:37:44.196Z,3.65
2023-03-16T13:40:31.660Z,5.00
2023-03-16T13:43:21.271Z,3.45
2023-03-16T13:46:16.977Z,3.20
2023-03-16T13:49:05.265Z,6.55
2023-03-16T13:51:52.615Z,2.65
2023-03-16T13:54:40.334Z,3.35
2023-03-16T13:57:29.420Z,4.10
2023-03-16T14:00:18.497Z,5.05
2023-03-16T14:03:32.945Z,2.92
2023-03-16T14:06:26.418Z,4.18
2023-03-16T14:09:16.875Z,3.25
2023-03-16T14:12:04.758Z,7.45
2023-03-16T14:14:55.846Z,3.55
2023-03-16T14:17:43.870Z,10.82
2023-03-16T14:20:33.095Z,9.23
2023-03-16T14:23:28.467Z,7.60
2023-03-16T14:26:18.736Z,5.97
2023-03-16T14:29:07.979Z,8.27
2023-03-16T14:31:56.023Z,12.18
2023-03-16T14:34:44.722Z,7.50
2023-03-16T14:37:36.112Z,5.85
2023-03-16T14:40:23.496Z,7.38
2023-03-16T14:43:11.399Z,5.40
2023-03-16T14:45:59.043Z,5.57
2023-03-16T14:48:46.977Z,4.55
2023-03-16T14:51:35.163Z,2.38
2023-03-16T14:54:23.042Z,3.40
2023-03-16T14:57:16.759Z,5.32
2023-03-16T15:00:05.588Z,3.63
2023-03-16T15:03:06.314Z,6.07
2023-03-16T15:05:54.147Z,5.10
2023-03-16T15:08:45.834Z,2.40
2023-03-16T15:11:33.077Z,2.97
2023-03-16T15:14:40.883Z,1.75
2023-03-16T15:17:28.804Z,2.60
2023-03-16T15:20:17.505Z,7.23
2023-03-16T15:23:05.715Z,1.92
2023-03-16T15:28:36.172Z,3.43
2023-03-16T15:31:23.736Z,7.33
2023-03-16T15:34:11.591Z,4.03
2023-03-16T15:36:59.302Z,5.43
2023-03-16T15:39:47.329Z,3.73
2023-03-16T15:42:35.268Z,1.97
2023-03-16T15:45:23.358Z,2.80
2023-03-16T15:48:12.191Z,3.57
2023-03-16T15:51:04.995Z,1.93
2023-03-16T15:53:55.531Z,4.37
2023-03-16T15:56:53.751Z,6.67
2023-03-16T16:02:33.097Z,2.20
2023-03-16T16:05:24.080Z,2.33
2023-03-16T16:08:14.320Z,3.40
2023-03-16T16:11:07.007Z,2.90
2023-03-16T16:13:57.303Z,2.13
2023-03-16T16:16:45.854Z,2.87
2023-03-16T16:19:34.718Z,2.07
2023-03-16T16:22:23.877Z,1.93
2023-03-16T16:25:13.570Z,1.60
2023-03-16T16:28:01.685Z,3.73
2023-03-16T16:30:49.581Z,3.63
2023-03-16T16:33:37.150Z,3.97
2023-03-16T16:36:25.265Z,2.03
2023-03-16T16:39:12.614Z,3.20
2023-03-16T16:42:00.324Z,3.83
2023-03-16T16:44:47.749Z,2.10
2023-03-16T16:47:35.408Z,2.17
2023-03-16T16:50:24.990Z,4.90
2023-03-16T16:53:21.175Z,3.47
2023-03-16T16:56:16.166Z,2.73
2023-03-16T16:59:12.783Z,2.87
2023-03-16T17:02:01.221Z,2.97
2023-03-16T17:04:50.679Z,2.07
2023-03-16T17:07:38.063Z,2.97
2023-03-16T17:10:27.069Z,3.50
2023-03-16T17:13:26.480Z,2.87
2023-03-16T17:16:16.751Z,3.07
2023-03-16T17:19:04.607Z,2.20
2023-03-16T17:21:53.190Z,3.90
2023-03-16T17:24:40.657Z,2.57
2023-03-16T17:27:30.001Z,2.93
2023-03-16T17:30:30.815Z,3.30
2023-03-16T17:33:19.488Z,3.20
2023-03-16T17:36:07.470Z,3.50
2023-03-16T17:38:54.945Z,3.37
2023-03-16T17:41:42.224Z,4.63
2023-03-16T17:44:34.816Z,3.33
2023-03-16T17:47:23.565Z,6.13
2023-03-16T17:50:30.223Z,4.33
2023-03-16T17:53:18.619Z,4.93
2023-03-16T17:56:14.070Z,4.30
2023-03-16T17:59:05.584Z,3.97
2023-03-16T18:01:52.831Z,3.70
2023-03-16T18:04:40.447Z,3.50
2023-03-16T18:07:27.612Z,4.03
2023-03-16T18:10:16.717Z,4.30
2023-03-16T18:13:07.564Z,4.10
2023-03-16T18:15:55.920Z,4.43
2023-03-16T18:18:43.828Z,4.13
2023-03-16T18:21:33.354Z,6.40
2023-03-16T18:24:22.707Z,4.30
2023-03-16T18:27:11.134Z,5.10
2023-03-16T18:29:58.399Z,4.53
2023-03-16T18:32:46.036Z,5.47
2023-03-16T18:35:33.553Z,7.23
2023-03-16T18:38:26.835Z,3.97
2023-03-16T18:41:22.865Z,4.80
2023-03-16T18:44:24.355Z,5.33
2023-03-16T18:47:15.678Z,4.17
2023-03-16T18:50:03.754Z,4.93
2023-03-16T18:52:52.321Z,6.20
2023-03-16T18:55:45.307Z,6.37
2023-03-16T18:58:32.604Z,8.13
2023-03-16T19:01:26.416Z,3.93
2023-03-16T19:04:22.070Z,6.17
2023-03-16T19:07:17.265Z,4.37
2023-03-16T19:10:23.428Z,4.47
2023-03-16T19:13:17.122Z,4.10
2023-03-16T19:16:08.176Z,5.83
2023-03-16T19:18:55.703Z,5.87
2023-03-16T19:21:43.716Z,4.20
2023-03-16T19:24:34.895Z,6.13
2023-03-16T19:27:25.462Z,5.07
2023-03-16T19:30:22.253Z,5.33
2023-03-16T19:33:22.912Z,6.57
2023-03-16T19:36:16.223Z,6.70
2023-03-16T19:39:04.140Z,6.50
2023-03-16T19:41:56.082Z,4.67
2023-03-16T19:44:44.693Z,5.00
2023-03-16T19:47:33.753Z,5.40
2023-03-16T19:50:22.510Z,4.73
2023-03-16T19:53:15.264Z,6.23
2023-03-16T19:56:02.529Z,6.43
2023-03-16T19:58:52.010Z,7.17
2023-03-16T20:01:39.420Z,6.70
2023-03-16T20:04:27.767Z,5.87
2023-03-16T20:07:18.783Z,4.97
2023-03-16T20:10:06.774Z,4.03
2023-03-16T20:12:56.568Z,5.57
2023-03-16T20:15:43.964Z,5.03
2023-03-16T20:18:31.976Z,5.13
2023-03-16T20:21:19.284Z,5.43
2023-03-16T20:24:15.263Z,5.40
2023-03-16T20:27:03.795Z,9.67
2023-03-16T20:29:51.774Z,6.07
2023-03-16T20:32:39.843Z,5.07
2023-03-16T20:35:29.437Z,5.50
2023-03-16T20:38:17.837Z,5.47
2023-03-16T20:41:13.071Z,6.30
2023-03-16T20:44:02.578Z,5.03
2023-03-16T20:46:50.496Z,6.13
2023-03-16T20:49:38.547Z,8.20
2023-03-16T20:52:30.456Z,4.70
2023-03-16T20:55:20.171Z,8.33
2023-03-16T20:58:26.342Z,6.53
2023-03-16T21:01:18.386Z,7.53
2023-03-16T21:04:07.321Z,9.70
2023-03-16T21:06:55.482Z,12.57
2023-03-16T21:09:49.905Z,7.07
2023-03-16T21:12:39.631Z,12.60
2023-03-16T21:15:28.880Z,7.90
2023-03-16T21:18:18.513Z,8.20
2023-03-16T21:21:07.091Z,6.57
2023-03-16T21:23:54.487Z,6.87
2023-03-16T21:26:42.911Z,7.13
2023-03-16T21:29:30.688Z,8.13
2023-03-16T21:32:22.889Z,8.50
2023-03-16T21:35:14.066Z,7.60
2023-03-16T21:38:02.622Z,6.07
2023-03-16T21:40:50.122Z,5.73
2023-03-16T21:43:37.478Z,5.27
2023-03-16T21:46:26.098Z,4.47
2023-03-16T21:49:13.861Z,5.17
2023-03-16T21:52:02.730Z,5.73
2023-03-16T21:54:50.817Z,6.30
2023-03-16T21:57:39.453Z,6.37
2023-03-16T22:00:29.476Z,4.03
2023-03-16T22:03:25.185Z,4.87
2023-03-16T22:06:13.672Z,5.50
2023-03-16T22:09:01.418Z,8.17
2023-03-16T22:11:48.785Z,6.90
2023-03-16T22:14:36.554Z,4.30
2023-03-16T22:17:24.024Z,4.93
2023-03-16T22:20:17.716Z,6.70
2023-03-16T22:23:05.231Z,5.20
2023-03-16T22:25:52.942Z,4.37
2023-03-16T22:28:40.578Z,3.80
2023-03-16T22:31:35.670Z,6.50
2023-03-16T22:34:43.400Z,5.53
2023-03-16T22:37:31.357Z,7.17
2023-03-16T22:40:19.118Z,3.90
2023-03-16T22:43:08.460Z,4.67
2023-03-16T22:45:56.903Z,8.53
2023-03-16T22:48:44.841Z,6.70
2023-03-16T22:51:33.808Z,3.93
2023-03-16T22:54:21.748Z,4.17
2023-03-16T22:57:13.587Z,4.53
2023-03-16T23:00:03.976Z,6.53
2023-03-16T23:02:51.249Z,6.30
2023-03-16T23:05:39.141Z,6.63
2023-03-16T23:08:26.643Z,5.50
2023-03-16T23:11:24.112Z,6.73
2023-03-16T23:14:15.957Z,4.57
2023-03-16T23:17:03.851Z,4.77
2023-03-16T23:19:51.830Z,11.73
2023-03-16T23:22:41.319Z,4.30
2023-03-16T23:25:28.603Z,5.43
2023-03-16T23:28:21.457Z,5.93
2023-03-16T23:31:11.470Z,5.90
2023-03-16T23:33:58.963Z,4.57
2023-03-16T23:36:46.345Z,5.50
2023-03-16T23:39:33.611Z,4.63
2023-03-16T23:42:21.157Z,4.50
2023-03-16T23:45:10.161Z,6.70
2023-03-16T23:47:59.140Z,6.70
2023-03-16T23:50:48.559Z,7.97
2023-03-16T23:53:36.075Z,5.17
2023-03-16T23:56:24.297Z,6.20
2023-03-16T23:59:12.126Z,5.13
